createdAt,value
2019-02-19T00:00:16.698Z,101161.45
2019-02-19T00:02:56.064Z,101159.97
2019-02-19T00:05:46.338Z,101151.95
2019-02-19T00:12:08.099Z,101143.16
2019-02-19T00:15:08.211Z,101139.80
2019-02-19T00:18:11.619Z,101129.17
2019-02-19T00:20:27.659Z,101124.55
2019-02-19T00:23:26.186Z,101127.31
2019-02-19T00:26:04.367Z,101129.07
2019-02-19T00:28:51.582Z,101123.66
2019-02-19T00:32:01.121Z,101117.82
2019-02-19T00:34:36.593Z,101120.28
2019-02-19T00:37:31.362Z,101115.63
2019-02-19T00:40:24.685Z,101113.91
2019-02-19T00:43:08.313Z,101115.48
2019-02-19T00:45:46.319Z,101112.56
2019-02-19T00:48:37.871Z,101115.22
2019-02-19T00:51:19.608Z,101113.71
2019-02-19T00:54:35.748Z,101117.41
2019-02-19T00:57:30.245Z,101114.98
2019-02-19T01:00:19.785Z,101111.14
2019-02-19T01:03:21.314Z,101108.26
2019-02-19T01:05:52.904Z,101107.53
2019-02-19T01:08:28.918Z,101107.22
2019-02-19T01:11:18.720Z,101112.70
2019-02-19T01:14:17.119Z,101112.16
2019-02-19T01:17:08.882Z,101106.02
2019-02-19T01:19:46.679Z,101107.39
2019-02-19T01:22:31.123Z,101103.36
2019-02-19T01:25:09.315Z,101105.88
2019-02-19T01:28:04.031Z,101098.71
2019-02-19T01:30:48.537Z,101105.40
2019-02-19T01:33:32.846Z,101094.80
2019-02-19T01:36:18.478Z,101086.28
2019-02-19T01:39:03.152Z,101086.38
2019-02-19T01:41:55.861Z,101083.94
2019-02-19T01:44:40.043Z,101089.42
2019-02-19T01:47:29.062Z,101088.92
2019-02-19T01:50:34.650Z,101088.52
2019-02-19T01:53:39.041Z,101079.31
2019-02-19T01:56:24.220Z,101078.66
2019-02-19T01:59:12.350Z,101075.94
2019-02-19T02:01:56.988Z,101070.79
2019-02-19T02:04:34.498Z,101073.83
2019-02-19T02:07:17.936Z,101066.84
2019-02-19T02:10:07.883Z,101068.97
2019-02-19T02:12:50.157Z,101063.98
2019-02-19T02:15:45.165Z,101063.47
2019-02-19T02:18:30.522Z,101063.38
2019-02-19T02:21:22.385Z,101059.58
2019-02-19T02:24:03.580Z,101064.93
2019-02-19T02:26:54.804Z,101066.42
2019-02-19T02:29:42.160Z,101063.84
2019-02-19T02:32:44.563Z,101059.98
2019-02-19T02:35:26.891Z,101063.40
2019-02-19T02:38:03.112Z,101063.11
2019-02-19T02:40:51.512Z,101066.63
2019-02-19T02:43:28.332Z,101059.44
2019-02-19T02:46:31.910Z,101070.58
2019-02-19T02:49:45.955Z,101062.61
2019-02-19T02:52:25.061Z,101068.48
2019-02-19T02:55:09.570Z,101071.42
2019-02-19T03:00:17.812Z,101075.62
2019-02-19T03:02:47.138Z,101065.64
2019-02-19T03:05:16.519Z,101061.24
2019-02-19T03:07:52.012Z,101066.36
2019-02-19T03:10:21.432Z,101058.36
2019-02-19T03:12:50.779Z,101064.09
2019-02-19T03:15:20.099Z,101061.06
2019-02-19T03:17:49.464Z,101069.07
2019-02-19T03:20:18.830Z,101069.07
2019-02-19T03:22:48.436Z,101068.80
2019-02-19T03:25:18.197Z,101071.50
2019-02-19T03:27:47.518Z,101068.64
2019-02-19T03:30:16.900Z,101072.05
2019-02-19T03:32:46.224Z,101070.73
2019-02-19T03:35:15.665Z,101075.69
2019-02-19T03:37:45.114Z,101072.80
2019-02-19T03:40:14.417Z,101069.47
2019-02-19T03:42:43.802Z,101073.92
2019-02-19T03:45:13.096Z,101075.69
2019-02-19T03:47:42.507Z,101071.48
2019-02-19T03:50:11.828Z,101080.38
2019-02-19T03:52:41.128Z,101074.89
2019-02-19T03:55:10.887Z,101083.89
2019-02-19T03:57:40.345Z,101084.36
2019-02-19T04:00:09.757Z,101089.42
2019-02-19T04:02:39.202Z,101090.55
2019-02-19T04:05:08.625Z,101078.33
2019-02-19T04:07:37.977Z,101092.36
2019-02-19T04:10:07.750Z,101101.63
2019-02-19T04:12:37.194Z,101097.19
2019-02-19T04:15:06.773Z,101084.47
2019-02-19T04:17:36.184Z,101088.22
2019-02-19T04:20:06.169Z,101088.99
2019-02-19T04:22:35.518Z,101096.17
2019-02-19T04:25:05.008Z,101103.31
2019-02-19T04:27:34.408Z,101103.20
2019-02-19T04:30:03.745Z,101105.20
2019-02-19T04:32:33.116Z,101098.52
2019-02-19T04:35:02.434Z,101095.63
2019-02-19T04:37:31.806Z,101093.88
2019-02-19T04:40:01.155Z,101090.56
2019-02-19T04:42:30.654Z,101101.69
2019-02-19T04:45:03.032Z,101110.58
2019-02-19T04:47:32.376Z,101116.41
2019-02-19T04:50:01.698Z,101114.16
2019-02-19T04:52:31.059Z,101116.97
2019-02-19T04:55:00.397Z,101111.95
2019-02-19T04:57:29.771Z,101109.89
2019-02-19T04:59:59.192Z,101112.86
2019-02-19T05:02:28.572Z,101118.30
2019-02-19T05:04:57.924Z,101116.55
2019-02-19T05:07:27.602Z,101115.45
2019-02-19T05:09:57.027Z,101114.39
2019-02-19T05:12:26.366Z,101117.08
2019-02-19T05:14:55.691Z,101120.46
2019-02-19T05:17:25.011Z,101116.52
2019-02-19T05:19:54.368Z,101109.58
2019-02-19T05:22:23.661Z,101115.14
2019-02-19T05:24:53.023Z,101110.08
2019-02-19T05:27:22.411Z,101112.77
2019-02-19T05:29:51.720Z,101108.70
2019-02-19T05:32:21.038Z,101109.39
2019-02-19T05:34:50.372Z,101105.27
2019-02-19T05:37:20.925Z,101116.86
2019-02-19T05:39:50.230Z,101119.17
2019-02-19T05:42:19.555Z,101117.17
2019-02-19T05:44:48.896Z,101116.48
2019-02-19T05:47:20.265Z,101115.67
2019-02-19T05:50:00.304Z,101109.92
2019-02-19T05:52:41.601Z,101111.23
2019-02-19T05:55:24.597Z,101117.14
2019-02-19T05:57:49.290Z,101125.77
2019-02-19T06:00:26.434Z,101117.08
2019-02-19T06:03:05.429Z,101122.02
2019-02-19T06:05:40.783Z,101121.52
2019-02-19T06:08:10.207Z,101120.89
2019-02-19T06:10:39.485Z,101136.34
2019-02-19T06:13:08.786Z,101127.87
2019-02-19T06:15:38.087Z,101128.98
2019-02-19T06:18:07.363Z,101134.59
2019-02-19T06:20:36.886Z,101144.78
2019-02-19T06:23:06.254Z,101144.94
2019-02-19T06:25:36.876Z,101146.75
2019-02-19T06:28:06.243Z,101143.66
2019-02-19T06:30:35.563Z,101149.22
2019-02-19T06:33:04.960Z,101152.97
2019-02-19T06:35:34.304Z,101153.03
2019-02-19T06:38:03.719Z,101152.91
2019-02-19T06:40:33.047Z,101146.75
2019-02-19T06:43:33.818Z,101163.16
2019-02-19T06:46:09.278Z,101165.72
2019-02-19T06:48:40.959Z,101177.39
2019-02-19T06:51:41.775Z,101166.45
2019-02-19T06:54:17.269Z,101172.73
2019-02-19T06:57:24.484Z,101178.41
2019-02-19T07:00:23.726Z,101177.91
2019-02-19T07:02:58.679Z,101184.84
2019-02-19T07:05:32.577Z,101191.59
2019-02-19T07:08:02.091Z,101197.10
2019-02-19T07:10:31.612Z,101191.72
2019-02-19T07:13:01.484Z,101192.17
2019-02-19T07:15:31.271Z,101193.80
2019-02-19T07:18:02.141Z,101181.16
2019-02-19T07:20:32.470Z,101188.86
2019-02-19T07:23:03.071Z,101192.17
2019-02-19T07:25:32.387Z,101194.03
2019-02-19T07:28:01.664Z,101196.22
2019-02-19T07:30:31.387Z,101206.22
2019-02-19T07:33:00.770Z,101198.23
2019-02-19T07:35:30.902Z,101206.25
2019-02-19T07:38:00.537Z,101214.41
2019-02-19T07:40:30.886Z,101214.86
2019-02-19T07:43:00.423Z,101208.29
2019-02-19T07:45:32.517Z,101206.35
2019-02-19T07:48:01.768Z,101210.11
2019-02-19T07:50:31.079Z,101217.88
2019-02-19T07:53:00.581Z,101213.94
2019-02-19T07:55:29.871Z,101219.19
2019-02-19T07:57:59.172Z,101211.47
2019-02-19T08:00:31.356Z,101206.53
2019-02-19T08:03:00.642Z,101206.48
2019-02-19T08:05:29.903Z,101205.03
2019-02-19T08:07:59.207Z,101205.55
2019-02-19T08:10:28.512Z,101210.98
2019-02-19T08:12:57.789Z,101215.55
2019-02-19T08:15:27.158Z,101208.36
2019-02-19T08:18:53.714Z,101210.12
2019-02-19T08:21:23.119Z,101211.17
2019-02-19T08:24:19.684Z,101210.98
2019-02-19T08:26:49.056Z,101208.12
2019-02-19T08:29:21.437Z,101208.41
2019-02-19T08:31:50.872Z,101212.31
2019-02-19T08:35:19.396Z,101207.69
2019-02-19T08:37:48.921Z,101211.70
2019-02-19T08:40:21.490Z,101214.42
2019-02-19T08:43:04.518Z,101218.48
2019-02-19T08:45:49.805Z,101231.25
2019-02-19T08:48:19.469Z,101231.02
2019-02-19T08:50:48.756Z,101230.46
2019-02-19T08:53:19.592Z,101224.52
2019-02-19T08:55:48.921Z,101236.08
2019-02-19T08:58:58.676Z,101243.41
2019-02-19T09:01:47.731Z,101241.38
2019-02-19T09:04:38.007Z,101235.75
2019-02-19T09:07:37.634Z,101237.50
2019-02-19T09:10:36.158Z,101246.41
2019-02-19T09:14:13.865Z,101235.53
2019-02-19T09:16:43.539Z,101246.84
2019-02-19T09:19:45.205Z,101247.13
2019-02-19T09:22:48.662Z,101246.03
2019-02-19T09:25:19.285Z,101260.27
2019-02-19T09:28:12.166Z,101253.07
2019-02-19T09:31:08.436Z,101263.66
2019-02-19T09:34:22.998Z,101260.28
2019-02-19T09:37:10.449Z,101252.02
2019-02-19T09:40:04.870Z,101245.70
2019-02-19T09:42:56.704Z,101247.20
2019-02-19T09:48:52.855Z,101250.36
2019-02-19T09:51:54.529Z,101258.81
2019-02-19T09:54:40.560Z,101249.92
2019-02-19T09:57:09.556Z,101248.61
2019-02-19T09:59:38.953Z,101248.36
2019-02-19T10:02:18.888Z,101247.23
2019-02-19T10:04:51.059Z,101257.69
2019-02-19T10:07:20.302Z,101253.42
2019-02-19T10:09:53.777Z,101253.18
2019-02-19T10:12:24.280Z,101251.23
2019-02-19T10:14:55.924Z,101245.61
2019-02-19T10:20:56.523Z,101244.80
2019-02-19T10:23:25.759Z,101235.59
2019-02-19T10:25:55.196Z,101247.05
2019-02-19T10:28:24.590Z,101246.19
2019-02-19T10:30:53.860Z,101232.36
2019-02-19T10:33:25.952Z,101233.44
2019-02-19T10:35:55.203Z,101233.69
2019-02-19T10:38:24.565Z,101253.09
2019-02-19T10:40:53.970Z,101240.45
2019-02-19T10:43:26.410Z,101235.43
2019-02-19T10:46:01.715Z,101234.67
2019-02-19T10:48:47.691Z,101239.70
2019-02-19T10:51:17.811Z,101238.50
2019-02-19T10:53:49.175Z,101241.24
2019-02-19T10:56:18.617Z,101228.91
2019-02-19T10:58:47.960Z,101224.23
2019-02-19T11:01:17.371Z,101217.00
2019-02-19T11:03:46.659Z,101228.36
2019-02-19T11:06:19.008Z,101234.86
2019-02-19T11:08:48.260Z,101235.24
2019-02-19T11:11:17.633Z,101228.03
2019-02-19T11:13:46.877Z,101220.43
2019-02-19T11:16:17.241Z,101227.09
2019-02-19T11:18:46.620Z,101229.77
2019-02-19T11:21:19.714Z,101232.91
2019-02-19T11:24:07.698Z,101238.25
2019-02-19T11:26:37.041Z,101236.84
2019-02-19T11:29:09.440Z,101239.46
2019-02-19T11:31:38.790Z,101238.72
2019-02-19T11:34:09.197Z,101238.84
2019-02-19T11:36:38.617Z,101230.31
2019-02-19T11:39:11.955Z,101231.02
2019-02-19T11:41:45.056Z,101228.52
2019-02-19T11:44:24.598Z,101226.86
2019-02-19T11:46:53.896Z,101227.09
2019-02-19T11:49:23.219Z,101222.12
2019-02-19T11:51:52.570Z,101219.38
2019-02-19T11:54:21.983Z,101231.65
2019-02-19T11:56:51.223Z,101230.61
2019-02-19T11:59:20.485Z,101235.66
2019-02-19T12:01:49.733Z,101237.41
2019-02-19T12:04:19.003Z,101235.86
2019-02-19T12:06:48.257Z,101240.31
2019-02-19T12:09:17.498Z,101237.80
2019-02-19T12:11:46.819Z,101247.39
2019-02-19T12:14:16.058Z,101244.81
2019-02-19T12:16:45.506Z,101251.34
2019-02-19T12:19:14.786Z,101237.80
2019-02-19T12:21:44.152Z,101229.64
2019-02-19T12:24:13.431Z,101239.76
2019-02-19T12:26:42.688Z,101236.00
2019-02-19T12:29:11.939Z,101227.57
2019-02-19T12:31:41.201Z,101240.73
2019-02-19T12:34:10.448Z,101242.63
2019-02-19T12:36:41.281Z,101245.16
2019-02-19T12:39:10.615Z,101238.27
2019-02-19T12:41:39.861Z,101228.80
2019-02-19T12:44:09.111Z,101242.53
2019-02-19T12:46:38.371Z,101223.72
2019-02-19T12:49:09.303Z,101240.86
2019-02-19T12:51:41.387Z,101244.34
2019-02-19T12:54:10.693Z,101242.72
2019-02-19T12:56:40.058Z,101238.27
2019-02-19T12:59:09.321Z,101254.26
2019-02-19T13:01:40.339Z,101249.69
2019-02-19T13:04:09.563Z,101237.39
2019-02-19T13:06:38.881Z,101245.24
2019-02-19T13:09:08.200Z,101242.92
2019-02-19T13:11:37.529Z,101245.79
2019-02-19T13:14:12.826Z,101239.91
2019-02-19T13:16:42.088Z,101251.70
2019-02-19T13:19:32.150Z,101260.22
2019-02-19T13:22:01.508Z,101249.69
2019-02-19T13:24:30.772Z,101255.57
2019-02-19T13:27:00.031Z,101252.27
2019-02-19T13:29:29.321Z,101263.75
2019-02-19T13:31:58.652Z,101257.91
2019-02-19T13:34:28.327Z,101260.30
2019-02-19T13:36:57.658Z,101263.48
2019-02-19T13:39:26.993Z,101261.78
2019-02-19T13:41:56.303Z,101260.66
2019-02-19T13:44:25.731Z,101270.36
2019-02-19T13:46:55.149Z,101268.92
2019-02-19T13:49:25.472Z,101286.14
2019-02-19T13:52:07.712Z,101267.05
2019-02-19T13:54:48.459Z,101276.17
2019-02-19T13:57:24.167Z,101282.69
2019-02-19T13:59:53.427Z,101268.17
2019-02-19T14:02:23.180Z,101272.80
2019-02-19T14:05:22.446Z,101271.23
2019-02-19T14:07:52.193Z,101266.79
2019-02-19T14:10:21.880Z,101266.59
2019-02-19T14:12:51.467Z,101267.09
2019-02-19T14:15:37.337Z,101274.30
2019-02-19T14:18:08.774Z,101274.42
2019-02-19T14:21:01.350Z,101275.67
2019-02-19T14:24:09.884Z,101277.67
2019-02-19T14:27:01.142Z,101292.63
2019-02-19T14:29:49.382Z,101285.88
2019-02-19T14:32:36.307Z,101292.73
2019-02-19T14:35:22.554Z,101300.77
2019-02-19T14:38:09.355Z,101285.06
2019-02-19T14:41:12.667Z,101299.17
2019-02-19T14:44:19.031Z,101301.13
2019-02-19T14:47:00.396Z,101306.23
2019-02-19T14:49:47.848Z,101299.69
2019-02-19T14:52:36.097Z,101303.31
2019-02-19T14:55:33.424Z,101298.94
2019-02-19T14:59:05.299Z,101298.00
2019-02-19T15:01:52.049Z,101291.49
2019-02-19T15:04:43.289Z,101300.16
2019-02-19T15:07:31.552Z,101298.50
2019-02-19T15:10:29.898Z,101298.35
2019-02-19T15:13:19.780Z,101293.03
2019-02-19T15:16:13.293Z,101299.50
2019-02-19T15:18:53.988Z,101304.27
2019-02-19T15:21:45.399Z,101299.38
2019-02-19T15:24:32.613Z,101300.80
2019-02-19T15:27:08.372Z,101304.80
2019-02-19T15:29:55.433Z,101312.69
2019-02-19T15:32:42.251Z,101306.74
2019-02-19T15:35:33.715Z,101313.00
2019-02-19T15:38:21.923Z,101311.69
2019-02-19T15:41:10.100Z,101311.00
2019-02-19T15:43:49.650Z,101329.52
2019-02-19T15:46:40.704Z,101331.28
2019-02-19T15:49:29.509Z,101329.70
2019-02-19T15:52:08.383Z,101333.52
2019-02-19T15:55:10.116Z,101326.08
2019-02-19T15:58:08.558Z,101327.91
2019-02-19T16:01:05.990Z,101313.14
2019-02-19T16:03:48.249Z,101332.33
2019-02-19T16:06:25.843Z,101332.41
2019-02-19T16:09:07.978Z,101328.70
2019-02-19T16:11:54.221Z,101335.22
2019-02-19T16:14:42.500Z,101331.14
2019-02-19T16:17:42.388Z,101335.22
2019-02-19T16:20:24.326Z,101329.75
2019-02-19T16:23:03.536Z,101339.11
2019-02-19T16:25:50.534Z,101331.07
2019-02-19T16:28:41.919Z,101335.14
2019-02-19T16:31:42.418Z,101335.64
2019-02-19T16:34:30.784Z,101344.84
2019-02-19T16:37:21.629Z,101340.66
2019-02-19T16:40:04.151Z,101343.86
2019-02-19T16:42:49.461Z,101344.99
2019-02-19T16:45:46.497Z,101348.61
2019-02-19T16:48:39.693Z,101349.75
2019-02-19T16:51:26.823Z,101364.20
2019-02-19T16:54:12.702Z,101365.75
2019-02-19T16:57:04.142Z,101367.38
2019-02-19T17:00:10.668Z,101372.45
2019-02-19T17:02:48.796Z,101374.56
2019-02-19T17:05:36.857Z,101364.75
2019-02-19T17:08:25.081Z,101376.89
2019-02-19T17:11:00.653Z,101381.38
2019-02-19T17:13:58.116Z,101378.94
2019-02-19T17:16:41.425Z,101381.48
2019-02-19T17:19:26.293Z,101383.63
2019-02-19T17:22:14.583Z,101389.81
2019-02-19T17:24:57.754Z,101394.44
2019-02-19T17:27:45.524Z,101401.00
2019-02-19T17:30:33.895Z,101403.58
2019-02-19T17:33:25.145Z,101406.76
2019-02-19T17:36:04.404Z,101404.27
2019-02-19T17:38:42.132Z,101401.53
2019-02-19T17:41:43.877Z,101409.83
2019-02-19T17:44:34.559Z,101404.58
2019-02-19T17:47:34.807Z,101408.16
2019-02-19T17:50:25.957Z,101406.53
2019-02-19T17:53:16.559Z,101418.98
2019-02-19T17:56:07.395Z,101422.73
2019-02-19T17:58:54.752Z,101422.02
2019-02-19T18:01:46.197Z,101416.41
2019-02-19T18:04:20.546Z,101414.05
2019-02-19T18:07:01.991Z,101417.41
2019-02-19T18:09:50.300Z,101414.45
2019-02-19T18:12:37.213Z,101421.54
2019-02-19T18:15:33.503Z,101430.90
2019-02-19T18:18:20.420Z,101427.34
2019-02-19T18:20:49.772Z,101412.20
2019-02-19T18:23:19.102Z,101424.59
2019-02-19T18:25:48.844Z,101426.09
2019-02-19T18:28:18.180Z,101435.78
2019-02-19T18:30:47.662Z,101429.07
2019-02-19T18:33:16.912Z,101438.20
2019-02-19T18:35:46.231Z,101439.22
2019-02-19T18:38:15.637Z,101446.59
2019-02-19T18:40:44.995Z,101441.84
2019-02-19T18:43:14.269Z,101443.97
2019-02-19T18:45:43.723Z,101440.16
2019-02-19T18:48:13.190Z,101444.77
2019-02-19T18:50:42.544Z,101445.27
2019-02-19T18:53:11.912Z,101445.92
2019-02-19T18:55:41.210Z,101447.40
2019-02-19T18:58:10.549Z,101452.16
2019-02-19T19:00:39.900Z,101452.48
2019-02-19T19:03:09.161Z,101452.34
2019-02-19T19:05:39.148Z,101462.16
2019-02-19T19:08:08.609Z,101465.47
2019-02-19T19:10:37.995Z,101462.12
2019-02-19T19:13:07.486Z,101464.79
2019-02-19T19:19:17.650Z,101466.66
2019-02-19T19:21:50.244Z,101464.80
2019-02-19T19:24:19.814Z,101469.23
2019-02-19T19:26:49.415Z,101470.05
2019-02-19T19:29:18.825Z,101471.36
2019-02-19T19:31:48.429Z,101470.73
2019-02-19T19:34:17.719Z,101478.11
2019-02-19T19:36:47.297Z,101478.75
2019-02-19T19:39:17.331Z,101483.69
2019-02-19T19:41:46.836Z,101482.20
2019-02-19T19:44:16.302Z,101492.92
2019-02-19T19:46:45.973Z,101493.52
2019-02-19T19:49:16.003Z,101497.31
2019-02-19T19:51:45.863Z,101503.20
2019-02-19T19:54:15.918Z,101490.57
2019-02-19T19:56:45.868Z,101492.06
2019-02-19T19:59:16.371Z,101494.52
2019-02-19T20:01:46.125Z,101501.61
2019-02-19T20:04:16.387Z,101510.17
2019-02-19T20:06:45.906Z,101511.63
2019-02-19T20:09:15.992Z,101519.02
2019-02-19T20:11:46.070Z,101517.41
2019-02-19T20:14:15.617Z,101516.23
2019-02-19T20:16:45.259Z,101508.01
2019-02-19T20:19:14.735Z,101519.02
2019-02-19T20:21:54.092Z,101513.48
2019-02-19T20:24:23.685Z,101517.06
2019-02-19T20:26:54.204Z,101518.27
2019-02-19T20:29:23.706Z,101517.13
2019-02-19T20:31:53.361Z,101521.60
2019-02-19T20:34:22.879Z,101516.14
2019-02-19T20:36:52.855Z,101524.62
2019-02-19T20:39:22.472Z,101520.86
2019-02-19T20:41:52.261Z,101518.80
2019-02-19T20:44:21.836Z,101525.37
2019-02-19T20:46:51.593Z,101527.99
2019-02-19T20:49:21.219Z,101527.64
2019-02-19T20:51:51.684Z,101530.80
2019-02-19T20:54:21.744Z,101525.05
2019-02-19T20:56:51.282Z,101529.98
2019-02-19T20:59:45.713Z,101527.31
2019-02-19T21:02:15.767Z,101527.35
2019-02-19T21:05:06.647Z,101533.42
2019-02-19T21:07:36.339Z,101530.62
2019-02-19T21:10:07.271Z,101533.84
2019-02-19T21:12:37.994Z,101527.31
2019-02-19T21:15:08.148Z,101525.86
2019-02-19T21:17:37.700Z,101526.53
2019-02-19T21:20:08.114Z,101524.73
2019-02-19T21:22:37.703Z,101530.51
2019-02-19T21:25:08.862Z,101523.12
2019-02-19T21:27:38.821Z,101536.58
2019-02-19T21:30:09.447Z,101532.32
2019-02-19T21:32:38.991Z,101535.59
2019-02-19T21:35:08.954Z,101530.69
2019-02-19T21:37:39.815Z,101535.62
2019-02-19T21:40:09.706Z,101533.59
2019-02-19T21:42:39.523Z,101540.48
2019-02-19T21:45:10.381Z,101531.50
2019-02-19T21:47:40.532Z,101541.13
2019-02-19T21:50:10.052Z,101545.77
2019-02-19T21:52:39.434Z,101539.88
2019-02-19T21:55:08.952Z,101542.67
2019-02-19T21:57:38.419Z,101545.50
2019-02-19T22:00:08.435Z,101545.77
2019-02-19T22:02:38.725Z,101547.75
2019-02-19T22:05:08.263Z,101541.83
2019-02-19T22:07:37.739Z,101547.61
2019-02-19T22:10:07.107Z,101529.48
2019-02-19T22:12:36.431Z,101547.40
2019-02-19T22:15:06.219Z,101544.80
2019-02-19T22:17:35.763Z,101544.45
2019-02-19T22:20:06.884Z,101552.33
2019-02-19T22:22:36.265Z,101547.08
2019-02-19T22:25:06.038Z,101537.11
2019-02-19T22:28:14.442Z,101537.25
2019-02-19T22:30:43.843Z,101543.34
2019-02-19T22:33:13.163Z,101538.39
2019-02-19T22:35:42.453Z,101544.95
2019-02-19T22:38:12.221Z,101547.75
2019-02-19T22:40:41.559Z,101552.69
2019-02-19T22:43:10.923Z,101548.77
2019-02-19T22:45:40.203Z,101541.83
2019-02-19T22:48:09.483Z,101549.38
2019-02-19T22:50:38.781Z,101547.40
2019-02-19T22:53:27.002Z,101546.91
2019-02-19T22:56:15.197Z,101549.84
2019-02-19T22:58:44.466Z,101543.78
2019-02-19T23:01:39.977Z,101545.41
2019-02-19T23:04:09.812Z,101550.66
2019-02-19T23:06:39.068Z,101559.00
2019-02-19T23:09:08.368Z,101561.66
2019-02-19T23:11:37.847Z,101559.53
2019-02-19T23:14:07.143Z,101566.06
2019-02-19T23:16:36.380Z,101564.72
2019-02-19T23:19:05.653Z,101570.50
2019-02-19T23:21:34.900Z,101574.64
2019-02-19T23:24:04.442Z,101573.33
2019-02-19T23:26:33.743Z,101578.23
2019-02-19T23:29:02.999Z,101586.25
2019-02-19T23:31:32.275Z,101580.19
2019-02-19T23:34:01.555Z,101582.81
2019-02-19T23:36:38.364Z,101580.51
2019-02-19T23:39:07.988Z,101579.89
2019-02-19T23:41:37.227Z,101582.55
2019-02-19T23:44:06.510Z,101580.86
2019-02-19T23:46:35.769Z,101575.14
2019-02-19T23:49:05.170Z,101581.17
2019-02-19T23:51:34.426Z,101590.75
2019-02-19T23:54:03.693Z,101586.11
2019-02-19T23:56:33.104Z,101581.70
2019-02-19T23:59:02.551Z,101580.86
